Accueil
METAR-TAF:

METAR-TAF

Aéroports :

Base aérienne Volkel-Uden

Uden, Pays-Bas

latitude: 51-39N, longitude: 005-42E, altitude: 22 m

Observation

Le bulletin a été fait il y a 8 minutes, à 08:55 UTC
Vent 7 kt de sud, variant entre sud-est et sud/sud-ouest
Température 19°C
Humidité 60%
Pression 1011 hPa
Visibilité 10 km ou plus
pas de nuages en-dessous de 1500 mètres et pas de cumulonimbus.

METAR: EHVK 150855Z AUTO 18005KT 140V210 9999 OVC110 19/11 Q1011 BLU 18007KT CAVOK

Heure: 11:03 (09:03 UTC)

Prévision

Le bulletin a été fait il y a 4 heures et 28 minutes, à 04:35 UTC
Prévision valable du 15 à 05 UTC au 15 à 17 UTC
Vent 3 kt de sud-est
Visibilité 10 km ou plus
pas de nuages en-dessous de 1500 mètres et pas de cumulonimbus.
Evoluant progressivement
du 15 à 08 UTC au 15 à 10 UTC
Vent 8 kt de sud/sud-ouest

TAF: EHVK 150435Z 1505/1517 13003KT CAVOK BECMG 1508/1510 20008KT

Observations et prévisions météorologiques de plus de 4000 aéroports (messages METAR et TAF).

Les stations disponibles sont représentées par des disques jaunes et rouges sur la carte.

Passer la souris dessus pour voir le nom de la station.

Cliquer dessus pour voir les observations et prévisions météorologiques.

Pour changer de carte: cliquez sur les boutons verts avec une croix noire pour zoomer, sur le bouton vert avec un tiret pour effectuer un zoom arrière, ou sur les flèches vertes pour les cartes adjacentes.


METAR-TAF: